createdAt,value
2022-11-15T00:02:29.832Z,9.87
2022-11-15T00:05:36.621Z,9.95
2022-11-15T00:08:39.250Z,9.91
2022-11-15T00:11:41.814Z,9.88
2022-11-15T00:14:44.594Z,9.96
2022-11-15T00:17:50.483Z,9.95
2022-11-15T00:20:53.097Z,9.98
2022-11-15T00:23:55.718Z,10.04
2022-11-15T00:26:58.333Z,10.01
2022-11-15T00:30:00.951Z,9.98
2022-11-15T00:33:05.539Z,9.99
2022-11-15T00:36:10.610Z,9.91
2022-11-15T00:39:13.300Z,9.90
2022-11-15T00:42:15.877Z,9.91
2022-11-15T00:45:18.665Z,9.92
2022-11-15T00:48:22.698Z,9.82
2022-11-15T00:51:25.419Z,9.84
2022-11-15T00:54:27.974Z,9.70
2022-11-15T00:57:30.538Z,9.63
2022-11-15T01:00:33.152Z,9.57
2022-11-15T01:03:37.431Z,9.54
2022-11-15T01:06:40.111Z,9.52
2022-11-15T01:09:42.652Z,9.52
2022-11-15T01:12:45.251Z,9.50
2022-11-15T01:15:47.837Z,9.33
2022-11-15T01:18:52.694Z,9.17
2022-11-15T01:21:55.288Z,8.99
2022-11-15T01:24:57.995Z,8.86
2022-11-15T01:28:00.571Z,8.78
2022-11-15T01:31:04.658Z,8.76
2022-11-15T01:34:08.622Z,8.58
2022-11-15T01:37:11.352Z,8.56
2022-11-15T01:40:13.946Z,8.51
2022-11-15T01:43:27.499Z,8.51
2022-11-15T01:46:32.851Z,8.41
2022-11-15T01:49:37.890Z,8.41
2022-11-15T01:52:41.430Z,8.36
2022-11-15T01:55:44.135Z,8.24
2022-11-15T01:58:47.393Z,8.23
2022-11-15T02:01:50.091Z,8.21
2022-11-15T02:04:54.029Z,8.34
2022-11-15T02:07:56.626Z,8.54
2022-11-15T02:10:59.246Z,8.65
2022-11-15T02:14:03.024Z,8.72
2022-11-15T02:17:15.285Z,8.71
2022-11-15T02:20:38.375Z,8.74
2022-11-15T02:24:18.478Z,8.73
2022-11-15T02:27:58.944Z,8.76
2022-11-15T02:31:06.202Z,8.86
2022-11-15T02:34:14.111Z,8.88
2022-11-15T02:37:19.355Z,8.81
2022-11-15T02:40:30.704Z,8.74
2022-11-15T02:43:56.428Z,8.72
2022-11-15T02:47:18.739Z,8.68
2022-11-15T02:50:23.887Z,8.66
2022-11-15T02:53:27.142Z,8.65
2022-11-15T02:56:29.882Z,8.67
2022-11-15T02:59:55.398Z,8.65
2022-11-15T03:03:25.617Z,8.57
2022-11-15T03:06:33.906Z,8.41
2022-11-15T03:09:37.565Z,8.27
2022-11-15T03:12:45.961Z,8.27
2022-11-15T03:15:53.023Z,8.24
2022-11-15T03:19:00.902Z,8.21
2022-11-15T03:22:06.503Z,8.26
2022-11-15T03:25:11.217Z,8.22
2022-11-15T03:28:17.333Z,8.25
2022-11-15T03:31:39.510Z,8.33
2022-11-15T03:34:45.898Z,8.24
2022-11-15T03:37:52.813Z,8.12
2022-11-15T03:40:58.470Z,8.17
2022-11-15T03:44:06.676Z,8.21
2022-11-15T03:47:12.123Z,8.20
2022-11-15T03:50:19.279Z,8.23
2022-11-15T03:53:21.828Z,8.18
2022-11-15T03:56:24.414Z,8.16
2022-11-15T03:59:27.065Z,8.20
2022-11-15T04:02:30.199Z,8.28
2022-11-15T04:05:34.361Z,8.47
2022-11-15T04:08:36.864Z,8.60
2022-11-15T04:11:39.399Z,8.57
2022-11-15T04:15:02.306Z,8.49
2022-11-15T04:18:05.015Z,8.41
2022-11-15T04:21:27.460Z,8.44
2022-11-15T04:24:30.114Z,8.55
2022-11-15T04:27:32.758Z,8.59
2022-11-15T04:30:35.325Z,8.75
2022-11-15T04:33:37.885Z,8.81
2022-11-15T04:36:59.269Z,8.74
2022-11-15T04:40:01.944Z,8.62
2022-11-15T04:43:04.576Z,8.53
2022-11-15T04:46:07.189Z,8.37
2022-11-15T04:49:09.784Z,8.10
2022-11-15T04:52:13.675Z,7.96
2022-11-15T04:55:16.577Z,7.81
2022-11-15T04:58:19.298Z,7.77
2022-11-15T05:01:21.902Z,7.81
2022-11-15T05:04:23.574Z,7.90
2022-11-15T05:07:27.576Z,8.07
2022-11-15T05:10:30.367Z,8.13
2022-11-15T05:13:33.289Z,8.20
2022-11-15T05:16:36.468Z,8.27
2022-11-15T05:19:39.458Z,8.03
2022-11-15T05:22:43.544Z,7.90
2022-11-15T05:25:46.112Z,7.78
2022-11-15T05:28:48.848Z,7.72
2022-11-15T05:31:51.500Z,7.74
2022-11-15T05:34:54.202Z,7.83
2022-11-15T05:37:58.446Z,8.00
2022-11-15T05:41:01.695Z,8.10
2022-11-15T05:44:07.503Z,8.17
2022-11-15T05:47:11.328Z,8.18
2022-11-15T05:50:15.079Z,8.22
2022-11-15T05:53:19.808Z,8.28
2022-11-15T05:56:22.966Z,8.31
2022-11-15T05:59:25.841Z,8.32
2022-11-15T06:02:28.969Z,8.25
2022-11-15T06:05:31.854Z,8.28
2022-11-15T06:08:35.807Z,8.36
2022-11-15T06:11:38.395Z,8.40
2022-11-15T06:14:40.942Z,8.48
2022-11-15T06:17:43.542Z,8.57
2022-11-15T06:20:46.172Z,8.57
2022-11-15T06:23:50.176Z,8.53
2022-11-15T06:26:54.626Z,8.47
2022-11-15T06:29:57.221Z,8.41
2022-11-15T06:33:03.751Z,8.40
2022-11-15T06:36:09.232Z,8.51
2022-11-15T06:39:16.690Z,8.58
2022-11-15T06:42:19.252Z,8.65
2022-11-15T06:45:21.868Z,8.57
2022-11-15T06:48:24.759Z,8.56
2022-11-15T06:51:27.316Z,8.56
2022-11-15T06:54:31.496Z,8.63
2022-11-15T06:57:35.400Z,8.72
2022-11-15T07:00:38.320Z,8.74
2022-11-15T07:03:42.200Z,8.86
2022-11-15T07:06:45.274Z,9.02
2022-11-15T07:09:49.465Z,9.02
2022-11-15T07:12:52.238Z,9.22
2022-11-15T07:15:55.088Z,9.36
2022-11-15T07:18:57.938Z,9.33
2022-11-15T07:22:00.605Z,9.47
2022-11-15T07:25:05.397Z,9.72
2022-11-15T07:28:08.210Z,10.05
2022-11-15T07:31:11.307Z,10.34
2022-11-15T07:34:13.979Z,10.46
2022-11-15T07:37:17.899Z,10.69
2022-11-15T07:40:21.850Z,10.99
2022-11-15T07:43:24.432Z,11.29
2022-11-15T07:46:27.128Z,11.62
2022-11-15T07:49:29.803Z,11.58
2022-11-15T07:52:32.414Z,11.94
2022-11-15T07:55:36.401Z,12.07
2022-11-15T07:58:39.107Z,12.34
2022-11-15T08:01:42.384Z,12.56
2022-11-15T08:04:45.029Z,12.76
2022-11-15T08:07:52.651Z,12.96
2022-11-15T08:10:57.034Z,12.99
2022-11-15T08:14:00.288Z,12.89
2022-11-15T08:17:03.108Z,12.78
2022-11-15T08:20:06.309Z,12.57
2022-11-15T08:23:09.986Z,12.52
2022-11-15T08:26:13.964Z,12.45
2022-11-15T08:29:16.887Z,12.33
2022-11-15T08:32:20.284Z,12.32
2022-11-15T08:35:28.657Z,12.28
2022-11-15T08:38:32.641Z,12.14
2022-11-15T08:41:39.245Z,12.23
2022-11-15T08:44:42.070Z,12.21
2022-11-15T08:47:47.415Z,12.31
2022-11-15T08:50:56.280Z,12.63
2022-11-15T08:53:58.861Z,12.91
2022-11-15T08:57:02.828Z,13.10
2022-11-15T09:00:06.622Z,13.35
2022-11-15T09:03:10.260Z,13.86
2022-11-15T09:06:12.950Z,14.27
2022-11-15T09:09:15.558Z,14.55
2022-11-15T09:12:19.522Z,14.68
2022-11-15T09:15:22.214Z,14.83
2022-11-15T09:18:25.001Z,15.07
2022-11-15T09:21:27.767Z,15.47
2022-11-15T09:24:30.464Z,15.71
2022-11-15T09:27:34.425Z,15.71
2022-11-15T09:30:37.206Z,16.03
2022-11-15T09:33:39.899Z,16.06
2022-11-15T09:36:42.573Z,16.34
2022-11-15T09:39:45.465Z,16.30
2022-11-15T09:42:59.051Z,16.09
2022-11-15T09:46:11.145Z,16.35
2022-11-15T09:49:16.189Z,16.51
2022-11-15T09:52:19.829Z,16.61
2022-11-15T09:55:32.700Z,16.61
2022-11-15T09:58:40.334Z,17.06
2022-11-15T10:01:48.429Z,17.47
2022-11-15T10:04:51.672Z,17.48
2022-11-15T10:08:00.795Z,17.38
2022-11-15T10:11:35.617Z,17.43
2022-11-15T10:14:33.209Z,17.42
2022-11-15T10:17:51.590Z,17.57
2022-11-15T10:20:58.343Z,17.55
2022-11-15T10:24:01.059Z,17.70
2022-11-15T10:27:03.917Z,17.78
2022-11-15T10:30:13.309Z,17.87
2022-11-15T10:33:25.374Z,17.64
2022-11-15T10:36:28.151Z,17.67
2022-11-15T10:39:31.731Z,17.50
2022-11-15T10:42:34.543Z,17.54
2022-11-15T10:45:39.573Z,17.66
2022-11-15T10:48:42.595Z,17.64
2022-11-15T10:51:47.859Z,17.74
2022-11-15T10:54:59.948Z,17.78
2022-11-15T10:58:06.785Z,17.64
2022-11-15T11:01:18.924Z,17.42
2022-11-15T11:04:21.935Z,17.23
2022-11-15T11:07:26.564Z,17.15
2022-11-15T11:10:50.273Z,17.11
2022-11-15T11:13:52.594Z,17.03
2022-11-15T11:17:03.492Z,16.95
2022-11-15T11:20:12.068Z,17.16
2022-11-15T11:23:27.379Z,17.44
2022-11-15T11:26:41.079Z,17.66
2022-11-15T11:29:47.222Z,17.69
2022-11-15T11:33:00.578Z,17.95
2022-11-15T11:36:16.077Z,18.14
2022-11-15T11:39:28.807Z,18.16
2022-11-15T11:42:38.356Z,18.40
2022-11-15T11:45:55.424Z,18.53
2022-11-15T11:49:03.839Z,18.57
2022-11-15T11:52:11.757Z,18.74
2022-11-15T11:55:16.833Z,18.72
2022-11-15T11:58:22.165Z,18.68
2022-11-15T12:01:26.951Z,18.72
2022-11-15T12:04:32.889Z,18.53
2022-11-15T12:07:37.129Z,18.67
2022-11-15T12:10:39.964Z,19.11
2022-11-15T12:13:42.896Z,19.40
2022-11-15T12:16:45.537Z,19.34
2022-11-15T12:19:49.641Z,19.02
2022-11-15T12:22:56.441Z,18.68
2022-11-15T12:26:03.376Z,18.53
2022-11-15T12:29:11.625Z,18.33
2022-11-15T12:32:21.191Z,18.17
2022-11-15T12:35:30.136Z,17.99
2022-11-15T12:38:56.134Z,17.87
2022-11-15T12:42:46.611Z,17.75
2022-11-15T12:45:49.422Z,17.66
2022-11-15T12:48:57.355Z,17.58
2022-11-15T12:52:11.010Z,17.64
2022-11-15T12:55:33.903Z,17.70
2022-11-15T12:58:44.076Z,17.80
2022-11-15T13:02:02.445Z,17.78
2022-11-15T13:05:56.830Z,17.62
2022-11-15T13:09:00.923Z,17.56
2022-11-15T13:12:04.859Z,17.47
2022-11-15T13:15:43.058Z,17.32
2022-11-15T13:18:55.384Z,17.14
2022-11-15T13:22:16.018Z,17.23
2022-11-15T13:25:21.567Z,17.18
2022-11-15T13:28:30.543Z,17.14
2022-11-15T13:31:38.246Z,17.09
2022-11-15T13:34:56.504Z,17.07
2022-11-15T13:38:06.462Z,16.85
2022-11-15T13:41:22.584Z,16.87
2022-11-15T13:44:27.126Z,16.75
2022-11-15T13:47:31.067Z,16.72
2022-11-15T13:50:36.672Z,16.70
2022-11-15T13:53:42.068Z,16.78
2022-11-15T13:56:48.132Z,16.58
2022-11-15T13:59:52.843Z,16.50
2022-11-15T14:02:56.776Z,16.29
2022-11-15T14:06:08.580Z,16.13
2022-11-15T14:09:36.356Z,15.96
2022-11-15T14:12:40.867Z,15.77
2022-11-15T14:15:43.850Z,15.66
2022-11-15T14:18:49.031Z,15.53
2022-11-15T14:22:15.001Z,15.39
2022-11-15T14:25:21.193Z,15.27
2022-11-15T14:28:34.498Z,15.25
2022-11-15T14:31:42.573Z,15.27
2022-11-15T14:34:46.485Z,15.28
2022-11-15T14:37:49.735Z,15.40
2022-11-15T14:40:52.606Z,15.48
2022-11-15T14:43:56.558Z,15.41
2022-11-15T14:46:59.179Z,15.38
2022-11-15T14:50:01.861Z,15.21
2022-11-15T14:53:05.279Z,15.12
2022-11-15T14:56:07.910Z,15.08
2022-11-15T14:59:11.894Z,15.11
2022-11-15T15:02:19.177Z,15.13
2022-11-15T15:05:24.385Z,15.08
2022-11-15T15:08:27.055Z,14.97
2022-11-15T15:11:31.746Z,14.91
2022-11-15T15:14:35.767Z,14.86
2022-11-15T15:17:38.592Z,14.79
2022-11-15T15:20:42.370Z,14.65
2022-11-15T15:23:44.999Z,14.57
2022-11-15T15:26:47.574Z,14.48
2022-11-15T15:29:51.511Z,14.41
2022-11-15T15:32:54.890Z,14.33
2022-11-15T15:35:57.613Z,14.46
2022-11-15T15:39:00.360Z,14.54
2022-11-15T15:42:03.033Z,14.60
2022-11-15T15:45:08.298Z,14.57
2022-11-15T15:48:13.586Z,14.58
2022-11-15T15:51:20.420Z,14.62
2022-11-15T15:54:23.492Z,14.53
2022-11-15T15:57:26.160Z,14.48
2022-11-15T16:00:30.392Z,14.55
2022-11-15T16:03:33.190Z,14.53
2022-11-15T16:06:40.351Z,14.60
2022-11-15T16:10:00.760Z,14.56
2022-11-15T16:13:03.551Z,14.59
2022-11-15T16:16:11.483Z,14.62
2022-11-15T16:19:14.310Z,14.61
2022-11-15T16:22:17.020Z,14.61
2022-11-15T16:25:19.712Z,14.63
2022-11-15T16:28:24.814Z,14.65
2022-11-15T16:31:28.771Z,14.75
2022-11-15T16:34:34.888Z,14.69
2022-11-15T16:37:40.856Z,14.67
2022-11-15T16:40:43.448Z,14.62
2022-11-15T16:43:47.612Z,14.60
2022-11-15T16:46:52.753Z,14.54
2022-11-15T16:49:55.426Z,14.56
2022-11-15T16:52:59.400Z,14.60
2022-11-15T16:56:02.107Z,14.56
2022-11-15T16:59:04.775Z,14.58
2022-11-15T17:02:12.015Z,14.62
2022-11-15T17:05:19.881Z,14.63
2022-11-15T17:08:24.418Z,14.62
2022-11-15T17:11:27.024Z,14.65
2022-11-15T17:14:29.698Z,14.65
2022-11-15T17:17:34.161Z,14.63
2022-11-15T17:20:36.847Z,14.64
2022-11-15T17:23:39.736Z,14.63
2022-11-15T17:26:42.878Z,14.61
2022-11-15T17:29:45.531Z,14.61
2022-11-15T17:32:49.855Z,14.60
2022-11-15T17:35:57.166Z,14.54
2022-11-15T17:39:00.313Z,14.51
2022-11-15T17:42:03.199Z,14.45
2022-11-15T17:45:09.920Z,14.43
2022-11-15T17:48:14.584Z,14.47
2022-11-15T17:51:18.760Z,14.47
2022-11-15T17:54:21.371Z,14.47
2022-11-15T17:57:24.239Z,14.46
2022-11-15T18:00:26.865Z,14.47
2022-11-15T18:03:31.337Z,14.44
2022-11-15T18:06:35.498Z,14.43
2022-11-15T18:09:38.796Z,14.39
2022-11-15T18:12:41.558Z,14.40
2022-11-15T18:15:44.145Z,14.40
2022-11-15T18:18:49.181Z,14.43
2022-11-15T18:21:57.937Z,14.38
2022-11-15T18:25:00.558Z,14.42
2022-11-15T18:28:03.137Z,14.37
2022-11-15T18:31:14.061Z,14.36
2022-11-15T18:34:18.573Z,14.40
2022-11-15T18:37:21.171Z,14.39
2022-11-15T18:40:23.787Z,14.36
2022-11-15T18:43:26.621Z,14.32
2022-11-15T18:46:30.757Z,14.36
2022-11-15T18:49:35.472Z,14.37
2022-11-15T18:52:38.117Z,14.36
2022-11-15T18:55:40.867Z,14.28
2022-11-15T18:58:46.482Z,14.19
2022-11-15T19:01:50.108Z,14.12
2022-11-15T19:04:54.143Z,14.04
2022-11-15T19:07:56.840Z,13.96
2022-11-15T19:11:04.001Z,13.95
2022-11-15T19:14:08.224Z,13.85
2022-11-15T19:17:11.018Z,13.88
2022-11-15T19:20:15.204Z,13.82
2022-11-15T19:23:17.823Z,13.82
2022-11-15T19:26:21.578Z,13.55
2022-11-15T19:29:24.522Z,13.53
2022-11-15T19:32:28.794Z,13.50
2022-11-15T19:35:32.830Z,13.45
2022-11-15T19:38:36.779Z,13.41
2022-11-15T19:41:42.209Z,13.33
2022-11-15T19:44:44.884Z,13.27
2022-11-15T19:47:47.621Z,13.23
2022-11-15T19:50:51.715Z,13.19
2022-11-15T19:53:55.838Z,13.13
2022-11-15T19:56:58.485Z,13.09
2022-11-15T20:00:06.863Z,13.06
2022-11-15T20:03:10.043Z,13.06
2022-11-15T20:06:16.832Z,13.11
2022-11-15T20:09:20.490Z,13.13
2022-11-15T20:12:23.627Z,13.09
2022-11-15T20:15:26.450Z,13.03
2022-11-15T20:18:30.679Z,13.01
2022-11-15T20:21:35.368Z,12.94
2022-11-15T20:24:38.114Z,12.88
2022-11-15T20:27:40.886Z,12.86
2022-11-15T20:30:44.300Z,12.83
2022-11-15T20:33:47.393Z,12.90
2022-11-15T20:36:51.446Z,12.89
2022-11-15T20:39:54.179Z,12.77
2022-11-15T20:42:56.998Z,12.76
2022-11-15T20:45:59.756Z,12.73
2022-11-15T20:49:02.463Z,12.74
2022-11-15T20:52:06.704Z,12.79
2022-11-15T20:55:10.592Z,12.74
2022-11-15T20:58:13.313Z,12.69
2022-11-15T21:01:17.748Z,12.62
2022-11-15T21:04:20.779Z,12.65
2022-11-15T21:07:25.020Z,12.65
2022-11-15T21:10:45.200Z,12.67
2022-11-15T21:13:47.890Z,12.67
2022-11-15T21:16:50.740Z,12.72
2022-11-15T21:19:53.869Z,12.72
2022-11-15T21:22:58.064Z,12.68
2022-11-15T21:26:00.647Z,12.69
2022-11-15T21:29:03.541Z,12.64
2022-11-15T21:32:08.173Z,12.51
2022-11-15T21:38:38.791Z,12.46
2022-11-15T21:41:41.396Z,12.52
2022-11-15T21:44:44.027Z,12.57
2022-11-15T21:47:46.971Z,12.57
2022-11-15T21:50:56.261Z,12.56
2022-11-15T21:54:00.660Z,12.57
2022-11-15T21:57:03.392Z,12.63
2022-11-15T22:00:38.839Z,12.60
2022-11-15T22:03:41.912Z,12.53
2022-11-15T22:06:44.627Z,12.50
2022-11-15T22:09:48.565Z,12.61
2022-11-15T22:12:51.180Z,12.65
2022-11-15T22:15:54.138Z,12.58
2022-11-15T22:18:57.090Z,12.57
2022-11-15T22:22:00.845Z,12.61
2022-11-15T22:25:05.995Z,12.61
2022-11-15T22:28:08.707Z,12.65
2022-11-15T22:31:11.942Z,12.68
2022-11-15T22:34:14.657Z,12.69
2022-11-15T22:37:21.303Z,12.69
2022-11-15T22:40:25.607Z,12.70
2022-11-15T22:43:28.532Z,12.65
2022-11-15T22:46:31.332Z,12.59
2022-11-15T22:49:34.016Z,12.58
2022-11-15T22:52:37.100Z,12.54
2022-11-15T22:55:41.343Z,12.42
2022-11-15T22:58:44.106Z,12.31
2022-11-15T23:01:46.835Z,12.25
2022-11-15T23:04:49.535Z,12.26
2022-11-15T23:07:52.234Z,12.23
2022-11-15T23:11:13.659Z,12.25
2022-11-15T23:14:16.541Z,12.22
2022-11-15T23:17:19.219Z,12.17
2022-11-15T23:20:41.958Z,12.10
2022-11-15T23:23:43.510Z,12.09
2022-11-15T23:26:49.339Z,12.12
2022-11-15T23:30:08.978Z,12.11
2022-11-15T23:33:32.537Z,12.02
2022-11-15T23:36:35.244Z,11.98
2022-11-15T23:39:38.174Z,12.04
2022-11-15T23:42:42.231Z,12.00
2022-11-15T23:45:44.925Z,11.97
2022-11-15T23:48:47.803Z,11.94
2022-11-15T23:51:50.520Z,11.98
2022-11-15T23:54:53.271Z,11.98
2022-11-15T23:57:57.500Z,11.95
